Bennettsville, South Carolina
Current Conditions -  °F | °C
As of 8:15 PM on Wednesday 22 Oct 2014 (Local Time) from KBBP Reporting Station
Clear Clear  
Wind Chill: 59°   Ceiling: Unl
Heat Index: 59°   Visibility: 10mi
Dew Point: 30°   Wind: 9mph
Humidity: 34%   Direction: 320°NW
Pressure: 30.03"   Gusts: NA
Location:  34.61°N, 79.68°W
Report Text: KBBP 230015Z AUTO 32008KT 10SM CLR 15/M01 A3003 RMK AO2
Loading
Personal Weather Stations






























Interactive Weather Map
Tropical Storm Tracking
New forecast layout! Learn more

10-Day Weather Forecast

Advertisements
Track Severe Weather on mobile